METAR Data
IDs: Format: Raw Decoded Include TAF

Data at: 2138 UTC 08 Aug 2020

KHVS 082135Z AUTO 00000KT 10SM FEW037 32/24 A3009 RMK AO2
KHVS 082115Z AUTO 00000KT 10SM CLR 31/23 A3010 RMK AO2
KHVS 082055Z AUTO 00000KT 10SM FEW060 32/24 A3010 RMK AO2
KHVS 082035Z AUTO VRB03KT 10SM FEW038 FEW055 31/24 A3010 RMK AO2
KHVS 082015Z AUTO 00000KT 10SM FEW035 FEW043 32/24 A3010 RMK AO2
KHVS 081955Z AUTO 00000KT 10SM SCT035 SCT043 31/24 A3011 RMK AO2
KHVS 081935Z AUTO 00000KT 10SM CLR 32/24 A3011 RMK AO2
KHVS 081915Z AUTO 00000KT 10SM FEW034 31/23 A3012 RMK AO2
KHVS 081855Z AUTO 00000KT 10SM FEW030 SCT035 31/24 A3013 RMK AO2
KHVS 081835Z AUTO 00000KT 10SM FEW029 SCT033 BKN055 31/24 A3014 RMK AO2
KHVS 081815Z AUTO 00000KT 10SM FEW029 SCT050 BKN060 29/24 A3015 RMK AO2
KHVS 081755Z AUTO VRB04KT 10SM FEW032 31/24 A3015 RMK AO2
KHVS 081735Z AUTO 00000KT 10SM CLR 31/24 A3015 RMK AO2 LTG DSNT E AND W
KHVS 081715Z AUTO 00000KT 10SM CLR 31/24 A3016 RMK AO2
KHVS 081655Z AUTO 00000KT 10SM CLR 30/23 A3016 RMK AO2 LTG DSNT E
KHVS 081635Z AUTO 00000KT 10SM CLR 30/23 A3016 RMK AO2
KHVS 081615Z AUTO 00000KT 10SM CLR 29/23 A3016 RMK AO2
KHVS 081555Z AUTO 00000KT 10SM CLR 29/23 A3017 RMK AO2
KHVS 081535Z AUTO 00000KT 10SM FEW018 28/23 A3017 RMK AO2
KHVS 081515Z AUTO 00000KT 10SM SCT016 27/23 A3017 RMK AO2
KHVS 081455Z AUTO 00000KT 10SM SCT013 27/24 A3017 RMK AO2 LTG DSNT E AND W
KHVS 081435Z AUTO 00000KT 10SM BKN011 26/24 A3017 RMK AO2
KHVS 081415Z AUTO 00000KT 10SM BKN009 BKN013 26/23 A3017 RMK AO2 LTG DSNT E
KHVS 081355Z AUTO 00000KT 10SM BKN008 25/23 A3016 RMK AO2
KHVS 081335Z AUTO 00000KT 10SM BKN007 24/23 A3016 RMK AO2
KHVS 081315Z AUTO 24005KT 10SM VCTS BKN005 BKN009 24/23 A3016 RMK AO2 LTG DSNT E
KHVS 081255Z AUTO 00000KT 10SM OVC004 23/23 A3017 RMK AO2
KHVS 081235Z AUTO 00000KT 7SM OVC003 23/22 A3017 RMK AO2
KHVS 081215Z AUTO 00000KT 3/4SM BR OVC003 22/22 A3016 RMK AO2 LTG DSNT E
KHVS 081155Z AUTO 00000KT M1/4SM FG OVC003 22/22 A3016 RMK AO2
KHVS 081135Z AUTO 00000KT M1/4SM FG OVC002 22/21 A3016 RMK AO2
KHVS 081115Z AUTO 00000KT M1/4SM FG OVC002 21/21 A3015 RMK AO2
KHVS 081055Z AUTO 00000KT M1/4SM FG OVC003 21/21 A3014 RMK AO2
KHVS 081035Z AUTO 00000KT 2 1/2SM BR OVC003 21/21 A3013 RMK AO2
KHVS 081015Z AUTO 00000KT 10SM OVC004 21/21 A3013 RMK AO2
KHVS 080955Z AUTO 00000KT 1/4SM FG OVC005 21/21 A3013 RMK AO2
KHVS 080935Z AUTO 00000KT 1/4SM FG BKN001 OVC007 21/21 A3012 RMK AO2
KHVS 080915Z AUTO 00000KT 2SM BR SCT007 BKN050 21/21 A3012 RMK AO2 LTG DSNT E
KHVS 080855Z AUTO 00000KT 2 1/2SM BR BKN049 BKN055 21/20 A3012 RMK AO2
KHVS 080835Z AUTO 00000KT 6SM BR BKN050 OVC055 21/21 A3012 RMK AO2
KHVS 080815Z AUTO 00000KT 7SM BKN050 BKN060 21/21 A3013 RMK AO2 LTG DSNT E
KHVS 080755Z AUTO 00000KT 6SM BR BKN050 BKN055 21/21 A3012 RMK AO2 LTG DSNT E
KHVS 080735Z AUTO 00000KT 7SM BKN055 21/21 A3013 RMK AO2 LTG DSNT E
KHVS 080715Z AUTO 00000KT 6SM BR BKN055 21/21 A3013 RMK AO2
KHVS 080655Z AUTO 00000KT 8SM OVC055 21/21 A3013 RMK AO2 LTG DSNT E
KHVS 080635Z AUTO 00000KT 3SM BR BKN055 22/21 A3012 RMK AO2 LTG DSNT E
KHVS 080615Z AUTO 00000KT 8SM SCT055 22/21 A3012 RMK AO2
KHVS 080555Z AUTO 00000KT 9SM FEW055 22/21 A3012 RMK AO2 LTG DSNT E
KHVS 080535Z AUTO 00000KT 10SM FEW055 22/21 A3012 RMK AO2 LTG DSNT E
KHVS 080515Z AUTO 00000KT 10SM CLR 22/21 A3012 RMK AO2 LTG DSNT E-SW
KHVS 080455Z AUTO 00000KT 10SM CLR 22/22 A3012 RMK AO2 LTG DSNT NE AND E
KHVS 080435Z AUTO 00000KT 10SM FEW050 22/22 A3012 RMK AO2 LTG DSNT E
KHVS 080415Z AUTO 00000KT 10SM FEW050 22/22 A3012 RMK AO2 LTG DSNT E
KHVS 080355Z AUTO 00000KT 10SM VCTS CLR 22/22 A3012 RMK AO2 LTG DSNT E AND W
KHVS 080335Z AUTO 00000KT 10SM FEW055 22/22 A3012 RMK AO2 LTG DSNT NE AND E
KHVS 080315Z AUTO 00000KT 10SM CLR 22/22 A3013 RMK AO2 LTG DSNT E AND W
KHVS 080255Z AUTO 00000KT 10SM FEW050 FEW060 22/22 A3014 RMK AO2 LTG DSNT NE-SE P0017
KHVS 080235Z AUTO 19005KT 4SM VCTS DZ 23/22 A3014 RMK AO2 LTG DSNT NE AND E AND W
KHVS 080215Z AUTO 00000KT 10SM TS FEW037 BKN049 BKN065 23/22 A3014 RMK AO2 LTG DSNT ALQDS
KHVS 080155Z AUTO 00000KT 7SM VCTS RA SCT007 BKN036 OVC070 23/23 A3014 RMK AO2 LTG DSNT ALQDS P0010
KHVS 080135Z AUTO 19005KT 10SM TS FEW013 BKN035 OVC050 23/23 A3015 RMK AO2 LTG DSNT E AND SE AND W
KHVS 080115Z AUTO 22004KT 10SM VCTS SCT033 BKN070 OVC110 23/23 A3014 RMK AO2 LTG DSNT ALQDS
KHVS 080055Z AUTO 00000KT 10SM VCTS SCT070 SCT120 23/23 A3011 RMK AO2 LTG DSNT E AND SE
KHVS 080035Z AUTO 00000KT 10SM VCTS FEW004 FEW120 23/23 A3010 RMK AO2 LTG DSNT ALQDS
KHVS 080015Z AUTO 00000KT 10SM VCTS SCT120 24/23 A3007 RMK AO2 LTG DSNT ALQDS
KHVS 072355Z AUTO 08003KT 10SM VCTS BKN110 24/23 A3008 RMK AO2 LTG DSNT ALQDS
KHVS 072335Z AUTO VRB04KT 10SM VCTS SCT120 24/23 A3007 RMK AO2 LTG DSNT ALQDS
KHVS 072315Z AUTO 09003KT 10SM VCTS CLR 24/23 A3006 RMK AO2 LTG DSNT ALQDS
KHVS 072255Z AUTO 00000KT 10SM VCTS CLR 23/22 A3007 RMK AO2 LTG DSNT ALQDS P0003
KHVS 072235Z AUTO 00000KT 8SM VCTS RA FEW041 SCT049 BKN060 23/22 A3005 RMK AO2 LTG DSNT ALQDS
KHVS 072215Z AUTO 00000KT 7SM VCTS DZ FEW050 BKN065 BKN075 23/23 A3006 RMK AO2 LTG DSNT ALQDS
KHVS 072155Z AUTO 00000KT 9SM VCTS DZ FEW039 SCT055 BKN060 23/22 A3007 RMK AO2 LTG DSNT ALQDS P0012
KHVS 072135Z AUTO VRB05KT 4SM TS BKN037 BKN060 OVC075 23/22 A3010 RMK AO2
KHVS 072115Z AUTO 26007KT 3SM TS 23/22 A3009 RMK AO2 LTG DSNT ALQDS
KHVS 072055Z AUTO VRB04G16KT 6SM TS 24/22 A3007 RMK AO2 LTG DSNT ALQDS
KHVS 072035Z AUTO 00000KT 10SM TS CLR 29/25 A3005 RMK AO2 LTG DSNT ALQDS
KHVS 072015Z AUTO VRB04KT 10SM VCTS SCT036 SCT044 SCT050 30/24 A3002 RMK AO2 LTG DSNT SW AND W
KHVS 071955Z AUTO 00000KT 10SM VCTS SCT037 BKN044 BKN060 32/24 A3004 RMK AO2 LTG DSNT NE AND SW AND W
KHVS 071935Z AUTO VRB04KT 10SM VCTS SCT039 32/24 A3005 RMK AO2 LTG DSNT SW AND W
KHVS 071915Z AUTO VRB04KT 10SM VCTS FEW037 FEW042 SCT048 32/24 A3006 RMK AO2 LTG DSNT SW AND W
KHVS 071855Z AUTO 00000KT 10SM VCTS SCT035 SCT044 32/24 A3007 RMK AO2 LTG DSNT SW AND W
KHVS 071835Z AUTO 17004KT 10SM SCT032 BKN039 BKN100 32/24 A3007 RMK AO2 LTG DSNT W
KHVS 071815Z AUTO VRB03KT 10SM VCTS BKN033 BKN042 BKN100 31/24 A3008 RMK AO2 LTG DSNT W
KHVS 071755Z AUTO 00000KT 10SM SCT033 SCT042 31/24 A3009 RMK AO2 LTG DSNT NE AND W
KHVS 071735Z AUTO VRB04KT 10SM BKN031 BKN037 BKN045 31/24 A3009 RMK AO2
KHVS 071715Z AUTO 00000KT 10SM BKN032 BKN038 30/24 A3009 RMK AO2
KHVS 071655Z AUTO 00000G10KT 10SM BKN030 BKN036 30/24 A3009 RMK AO2
KHVS 071635Z AUTO VRB04KT 10SM SCT028 BKN033 31/24 A3010 RMK AO2
KHVS 071615Z AUTO VRB03KT 10SM BKN029 30/24 A3010 RMK AO2
KHVS 071555Z AUTO 17005KT 10SM SCT026 SCT031 30/24 A3010 RMK AO2
KHVS 071535Z AUTO 00000KT 10SM FEW026 29/23 A3011 RMK AO2
KHVS 071515Z AUTO VRB03KT 10SM CLR 29/23 A3010 RMK AO2
KHVS 071455Z AUTO VRB04KT 10SM CLR 29/24 A3011 RMK AO2
KHVS 071435Z AUTO VRB06KT 10SM CLR 28/23 A3010 RMK AO2
KHVS 071415Z AUTO 00000KT 10SM FEW017 28/23 A3010 RMK AO2 LTG DSNT E
KHVS 071355Z AUTO 00000KT 10SM CLR 28/24 A3010 RMK AO2 LTG DSNT E
KHVS 071335Z AUTO VRB03KT 10SM FEW011 27/24 A3010 RMK AO2 LTG DSNT E
KHVS 071315Z AUTO 00000KT 10SM CLR 26/24 A3010 RMK AO2 LTG DSNT E
KHVS 071255Z AUTO 00000KT 10SM FEW007 26/24 A3009 RMK AO2 LTG DSNT E
KHVS 071235Z AUTO 00000KT 10SM SCT005 SCT120 25/24 A3008 RMK AO2 LTG DSNT E
KHVS 071215Z AUTO 00000KT 10SM BKN005 BKN120 24/24 A3008 RMK AO2 LTG DSNT E
KHVS 071155Z AUTO 00000KT 6SM BR 24/24 A3009 RMK AO2 LTG DSNT NE AND E
KHVS 071135Z AUTO 00000KT 7SM VCTS BKN004 24/24 A3009 RMK AO2 LTG DSNT E
KHVS 071115Z AUTO 00000KT 5SM BR CLR 23/23 A3009 RMK AO2 LTG DSNT E
KHVS 071055Z AUTO 00000KT 7SM 23/23 A3008 RMK AO2 LTG DSNT E
KHVS 071035Z AUTO 00000KT 5SM BR 23/23 A3008 RMK AO2 LTG DSNT E AND SE
KHVS 071015Z AUTO 00000KT 1SM BR SCT002 OVC007 23/23 A3008 RMK AO2 LTG DSNT E AND SE
KHVS 070955Z AUTO 00000KT 1/4SM FG OVC002 23/23 A3008 RMK AO2